createdAt,value
2023-05-14T00:00:51.070Z,955.0515
2023-05-14T00:01:52.500Z,955.0331
2023-05-14T00:02:53.943Z,955.0300
2023-05-14T00:03:55.321Z,955.0308
2023-05-14T00:04:56.663Z,955.0154
2023-05-14T00:05:58.109Z,955.0200
2023-05-14T00:06:59.626Z,955.0247
2023-05-14T00:08:01.001Z,955.0308
2023-05-14T00:09:02.356Z,955.0300
2023-05-14T00:10:03.832Z,955.0277
2023-05-14T00:11:05.205Z,955.0170
2023-05-14T00:12:06.742Z,955.0131
2023-05-14T00:13:08.143Z,955.0077
2023-05-14T00:14:09.513Z,955.0100
2023-05-14T00:15:10.872Z,955.0200
2023-05-14T00:16:12.398Z,955.0285
2023-05-14T00:17:13.769Z,955.0269
2023-05-14T00:18:15.251Z,955.0339
2023-05-14T00:19:16.671Z,955.0354
2023-05-14T00:20:18.117Z,955.0254
2023-05-14T00:21:19.393Z,955.0070
2023-05-14T00:22:20.897Z,954.9969
2023-05-14T00:23:22.351Z,954.9753
2023-05-14T00:24:23.719Z,954.9585
2023-05-14T00:25:25.085Z,954.9585
2023-05-14T00:26:26.631Z,954.9631
2023-05-14T00:27:28.064Z,954.9646
2023-05-14T00:28:29.485Z,954.9608
2023-05-14T00:29:30.891Z,954.9539
2023-05-14T00:30:32.254Z,954.9392
2023-05-14T00:31:33.813Z,954.9277
2023-05-14T00:32:35.144Z,954.9138
2023-05-14T00:33:36.560Z,954.9039
2023-05-14T00:34:37.954Z,954.8915
2023-05-14T00:35:39.401Z,954.8870
2023-05-14T00:36:40.816Z,954.8831
2023-05-14T00:37:42.282Z,954.8746
2023-05-14T00:38:43.615Z,954.8723
2023-05-14T00:39:45.080Z,954.8638
2023-05-14T00:40:46.472Z,954.8531
2023-05-14T00:41:47.840Z,954.8431
2023-05-14T00:42:49.271Z,954.8439
2023-05-14T00:43:50.834Z,954.8270
2023-05-14T00:44:52.183Z,954.8292
2023-05-14T00:45:53.678Z,954.8285
2023-05-14T00:46:55.097Z,954.8246
2023-05-14T00:47:56.519Z,954.8138
2023-05-14T00:48:57.928Z,954.8054
2023-05-14T00:49:59.349Z,954.8115
2023-05-14T00:51:00.739Z,954.8077
2023-05-14T00:52:02.200Z,954.7985
2023-05-14T00:53:03.643Z,954.8046
2023-05-14T00:54:05.805Z,954.8085
2023-05-14T00:55:06.584Z,954.8108
2023-05-14T00:56:07.841Z,954.8085
2023-05-14T00:57:09.307Z,954.8015
2023-05-14T00:58:10.742Z,954.7953
2023-05-14T00:59:12.193Z,954.7985
2023-05-14T01:00:13.500Z,954.7846
2023-05-14T01:01:14.980Z,954.7839
2023-05-14T01:02:16.479Z,954.7723
2023-05-14T01:03:18.007Z,954.7700
2023-05-14T01:04:19.273Z,954.7639
2023-05-14T01:05:20.755Z,954.7515
2023-05-14T01:06:22.090Z,954.7500
2023-05-14T01:07:23.520Z,954.7361
2023-05-14T01:08:25.046Z,954.7330
2023-05-14T01:09:26.397Z,954.7230
2023-05-14T01:10:27.810Z,954.7123
2023-05-14T01:11:29.282Z,954.7077
2023-05-14T01:12:30.701Z,954.6985
2023-05-14T01:13:32.049Z,954.6908
2023-05-14T01:14:33.476Z,954.7023
2023-05-14T01:15:34.903Z,954.6923
2023-05-14T01:16:36.382Z,954.6992
2023-05-14T01:17:37.811Z,954.7123
2023-05-14T01:18:39.288Z,954.7131
2023-05-14T01:19:40.664Z,954.7047
2023-05-14T01:20:42.071Z,954.7062
2023-05-14T01:21:43.458Z,954.7008
2023-05-14T01:22:44.943Z,954.7146
2023-05-14T01:23:46.324Z,954.7069
2023-05-14T01:24:47.733Z,954.7069
2023-05-14T01:25:49.222Z,954.7047
2023-05-14T01:26:50.527Z,954.7069
2023-05-14T01:27:52.109Z,954.6992
2023-05-14T01:28:53.416Z,954.6854
2023-05-14T01:29:54.833Z,954.6777
2023-05-14T01:30:56.407Z,954.6808
2023-05-14T01:31:58.906Z,954.6862
2023-05-14T01:32:59.197Z,954.6754
2023-05-14T01:34:00.612Z,954.6653
2023-05-14T01:35:02.084Z,954.6561
2023-05-14T01:36:04.370Z,954.6569
2023-05-14T01:37:04.952Z,954.6561
2023-05-14T01:38:06.408Z,954.6561
2023-05-14T01:39:07.788Z,954.6392
2023-05-14T01:40:09.143Z,954.6492
2023-05-14T01:41:10.634Z,954.6584
2023-05-14T01:42:12.064Z,954.6685
2023-05-14T01:43:13.489Z,954.6785
2023-05-14T01:44:14.898Z,954.6870
2023-05-14T01:45:16.286Z,954.6830
2023-05-14T01:46:17.808Z,954.6870
2023-05-14T01:47:19.886Z,954.6885
2023-05-14T01:48:20.567Z,954.6900
2023-05-14T01:49:21.958Z,954.6938
2023-05-14T01:50:23.689Z,954.6908
2023-05-14T01:51:24.853Z,954.6892
2023-05-14T01:52:26.283Z,954.6862
2023-05-14T01:53:27.631Z,954.6815
2023-05-14T01:54:29.144Z,954.6838
2023-05-14T01:55:30.472Z,954.6692
2023-05-14T01:56:31.959Z,954.6661
2023-05-14T01:57:33.446Z,954.6754
2023-05-14T01:58:34.757Z,954.6608
2023-05-14T01:59:36.118Z,954.6523
2023-05-14T02:00:37.614Z,954.6354
2023-05-14T02:01:39.131Z,954.6270
2023-05-14T02:02:40.476Z,954.6246
2023-05-14T02:03:42.006Z,954.6238
2023-05-14T02:04:43.321Z,954.6208
2023-05-14T02:05:44.686Z,954.6192
2023-05-14T02:06:46.852Z,954.6200
2023-05-14T02:07:47.669Z,954.6123
2023-05-14T02:08:48.977Z,954.5877
2023-05-14T02:09:50.473Z,954.5715
2023-05-14T02:10:51.823Z,954.5500
2023-05-14T02:11:53.353Z,954.5453
2023-05-14T02:12:54.685Z,954.5377
2023-05-14T02:13:56.162Z,954.5461
2023-05-14T02:14:57.613Z,954.5515
2023-05-14T02:15:59.121Z,954.5623
2023-05-14T02:17:00.429Z,954.5654
2023-05-14T02:18:01.993Z,954.5638
2023-05-14T02:19:03.378Z,954.5523
2023-05-14T02:20:04.677Z,954.5408
2023-05-14T02:21:06.080Z,954.5323
2023-05-14T02:22:07.569Z,954.5361
2023-05-14T02:23:08.932Z,954.5292
2023-05-14T02:24:10.314Z,954.5031
2023-05-14T02:25:11.778Z,954.4877
2023-05-14T02:26:13.253Z,954.4615
2023-05-14T02:27:14.776Z,954.4454
2023-05-14T02:28:16.047Z,954.4254
2023-05-14T02:29:17.483Z,954.4230
2023-05-14T02:30:18.859Z,954.4169
2023-05-14T02:31:20.395Z,954.4138
2023-05-14T02:32:21.827Z,954.4230
2023-05-14T02:33:23.322Z,954.4308
2023-05-14T02:34:24.599Z,954.4423
2023-05-14T02:35:26.068Z,954.4508
2023-05-14T02:36:27.420Z,954.4470
2023-05-14T02:37:28.992Z,954.4223
2023-05-14T02:38:30.292Z,954.4161
2023-05-14T02:39:31.643Z,954.4308
2023-05-14T02:40:33.107Z,954.4254
2023-05-14T02:41:34.593Z,954.4285
2023-05-14T02:42:35.990Z,954.4315
2023-05-14T02:43:37.440Z,954.4185
2023-05-14T02:44:38.722Z,954.4269
2023-05-14T02:45:40.306Z,954.4192
2023-05-14T02:46:41.719Z,954.4115
2023-05-14T02:47:43.945Z,954.4238
2023-05-14T02:48:45.333Z,954.4185
2023-05-14T02:49:45.831Z,954.4069
2023-05-14T02:50:47.420Z,954.3954
2023-05-14T02:51:48.778Z,954.3892
2023-05-14T02:52:50.293Z,954.3785
2023-05-14T02:53:51.696Z,954.3553
2023-05-14T02:54:53.814Z,954.3492
2023-05-14T02:55:54.546Z,954.3431
2023-05-14T02:56:55.908Z,954.3492
2023-05-14T02:57:57.356Z,954.3508
2023-05-14T02:58:59.417Z,954.3377
2023-05-14T03:00:00.052Z,954.3285
2023-05-14T03:01:01.647Z,954.3285
2023-05-14T03:02:03.093Z,954.3200
2023-05-14T03:03:04.467Z,954.3130
2023-05-14T03:04:05.899Z,954.3292
2023-05-14T03:05:07.286Z,954.3377
2023-05-14T03:06:08.728Z,954.3400
2023-05-14T03:07:10.116Z,954.3477
2023-05-14T03:08:11.449Z,954.3523
2023-05-14T03:09:12.956Z,954.3592
2023-05-14T03:10:14.407Z,954.3723
2023-05-14T03:11:15.792Z,954.3762
2023-05-14T03:12:17.246Z,954.3754
2023-05-14T03:13:18.552Z,954.3746
2023-05-14T03:14:20.063Z,954.3608
2023-05-14T03:15:21.414Z,954.3561
2023-05-14T03:16:22.930Z,954.3515
2023-05-14T03:17:24.274Z,954.3484
2023-05-14T03:18:25.855Z,954.3385
2023-05-14T03:19:27.160Z,954.3323
2023-05-14T03:20:28.593Z,954.3300
2023-05-14T03:21:30.020Z,954.3270
2023-05-14T03:22:31.425Z,954.3300
2023-05-14T03:23:33.366Z,954.3177
2023-05-14T03:24:34.289Z,954.3130
2023-05-14T03:25:35.702Z,954.3185
2023-05-14T03:26:37.076Z,954.3077
2023-05-14T03:27:38.551Z,954.3023
2023-05-14T03:28:39.977Z,954.2923
2023-05-14T03:29:41.416Z,954.2961
2023-05-14T03:30:42.920Z,954.3000
2023-05-14T03:31:44.240Z,954.3015
2023-05-14T03:32:45.642Z,954.3085
2023-05-14T03:33:47.048Z,954.3085
2023-05-14T03:34:48.486Z,954.3108
2023-05-14T03:35:49.920Z,954.2938
2023-05-14T03:36:51.283Z,954.3008
2023-05-14T03:37:52.753Z,954.3046
2023-05-14T03:38:54.180Z,954.3054
2023-05-14T03:39:55.668Z,954.2969
2023-05-14T03:40:57.014Z,954.2800
2023-05-14T03:41:58.441Z,954.2685
2023-05-14T03:42:59.827Z,954.2485
2023-05-14T03:44:01.320Z,954.2300
2023-05-14T03:45:02.760Z,954.2200
2023-05-14T03:46:04.139Z,954.2123
2023-05-14T03:47:05.605Z,954.2139
2023-05-14T03:48:07.102Z,954.2208
2023-05-14T03:49:08.482Z,954.2323
2023-05-14T03:50:09.958Z,954.2400
2023-05-14T03:51:11.259Z,954.2492
2023-05-14T03:52:12.695Z,954.2515
2023-05-14T03:53:14.093Z,954.2354
2023-05-14T03:54:15.549Z,954.2277
2023-05-14T03:55:17.024Z,954.2223
2023-05-14T03:56:18.285Z,954.2039
2023-05-14T03:57:19.756Z,954.1915
2023-05-14T03:58:21.237Z,954.1838
2023-05-14T03:59:22.651Z,954.1792
2023-05-14T04:00:24.333Z,954.1738
2023-05-14T04:01:25.505Z,954.1723
2023-05-14T04:02:27.046Z,954.1769
2023-05-14T04:03:28.407Z,954.1630
2023-05-14T04:04:29.828Z,954.1685
2023-05-14T04:05:31.904Z,954.1730
2023-05-14T04:06:32.607Z,954.1823
2023-05-14T04:07:34.014Z,954.1915
2023-05-14T04:08:35.509Z,954.1946
2023-05-14T04:09:36.938Z,954.1977
2023-05-14T04:10:38.448Z,954.2184
2023-05-14T04:11:39.792Z,954.2323
2023-05-14T04:12:41.184Z,954.2253
2023-05-14T04:13:42.569Z,954.2200
2023-05-14T04:14:44.046Z,954.2154
2023-05-14T04:15:46.354Z,954.2092
2023-05-14T04:16:46.980Z,954.1985
2023-05-14T04:17:48.350Z,954.1830
2023-05-14T04:18:49.780Z,954.1892
2023-05-14T04:19:51.141Z,954.1962
2023-05-14T04:20:52.609Z,954.2039
2023-05-14T04:21:54.033Z,954.2115
2023-05-14T04:22:55.352Z,954.2253
2023-05-14T04:23:56.871Z,954.2308
2023-05-14T04:24:58.393Z,954.2392
2023-05-14T04:25:59.681Z,954.2462
2023-05-14T04:27:01.150Z,954.2554
2023-05-14T04:28:02.514Z,954.2623
2023-05-14T04:29:03.884Z,954.2692
2023-05-14T04:30:05.380Z,954.2739
2023-05-14T04:31:06.831Z,954.2685
2023-05-14T04:32:08.307Z,954.2731
2023-05-14T04:33:09.748Z,954.2747
2023-05-14T04:34:11.076Z,954.2816
2023-05-14T04:35:12.561Z,954.2869
2023-05-14T04:36:13.957Z,954.2985
2023-05-14T04:37:15.289Z,954.2923
2023-05-14T04:38:16.762Z,954.2908
2023-05-14T04:39:18.217Z,954.2946
2023-05-14T04:40:19.704Z,954.2938
2023-05-14T04:41:21.145Z,954.3015
2023-05-14T04:42:22.443Z,954.2946
2023-05-14T04:43:23.934Z,954.2862
2023-05-14T04:44:25.315Z,954.2808
2023-05-14T04:45:26.819Z,954.2900
2023-05-14T04:46:28.369Z,954.2938
2023-05-14T04:47:29.762Z,954.2931
2023-05-14T04:48:31.052Z,954.2831
2023-05-14T04:49:32.534Z,954.2692
2023-05-14T04:50:33.900Z,954.2662
2023-05-14T04:51:35.386Z,954.2654
2023-05-14T04:52:36.749Z,954.2685
2023-05-14T04:53:38.217Z,954.2570
2023-05-14T04:54:39.716Z,954.2623
2023-05-14T04:55:40.958Z,954.2685
2023-05-14T04:56:42.582Z,954.2785
2023-05-14T04:57:43.901Z,954.2861
2023-05-14T04:58:45.284Z,954.2953
2023-05-14T04:59:46.770Z,954.3008
2023-05-14T05:00:48.253Z,954.3046
2023-05-14T05:01:49.698Z,954.3162
2023-05-14T05:02:51.029Z,954.3231
2023-05-14T05:03:52.368Z,954.3347
2023-05-14T05:04:53.880Z,954.3416
2023-05-14T05:05:55.322Z,954.3416
2023-05-14T05:06:56.745Z,954.3254
2023-05-14T05:07:58.188Z,954.3454
2023-05-14T05:09:01.845Z,954.3661
2023-05-14T05:10:00.991Z,954.3823
2023-05-14T05:11:02.464Z,954.3931
2023-05-14T05:12:03.866Z,954.4061
2023-05-14T05:13:05.376Z,954.4054
2023-05-14T05:14:06.826Z,954.4092
2023-05-14T05:15:08.137Z,954.3969
2023-05-14T05:16:09.723Z,954.4077
2023-05-14T05:17:11.012Z,954.4215
2023-05-14T05:18:12.467Z,954.4377
2023-05-14T05:19:13.981Z,954.4362
2023-05-14T05:20:15.377Z,954.4438
2023-05-14T05:21:16.650Z,954.4470
2023-05-14T05:22:18.947Z,954.4238
2023-05-14T05:23:19.491Z,954.4092
2023-05-14T05:24:20.962Z,954.4115
2023-05-14T05:25:22.389Z,954.4153
2023-05-14T05:26:23.802Z,954.4254
2023-05-14T05:27:25.237Z,954.4323
2023-05-14T05:28:26.664Z,954.4285
2023-05-14T05:29:28.031Z,954.4254
2023-05-14T05:30:29.475Z,954.4230
2023-05-14T05:31:30.970Z,954.3985
2023-05-14T05:32:32.487Z,954.4108
2023-05-14T05:33:33.839Z,954.4146
2023-05-14T05:34:35.255Z,954.4177
2023-05-14T05:35:36.710Z,954.4185
2023-05-14T05:36:38.039Z,954.4208
2023-05-14T05:37:39.565Z,954.4192
2023-05-14T05:38:40.973Z,954.4223
2023-05-14T05:39:42.390Z,954.4108
2023-05-14T05:40:43.774Z,954.4008
2023-05-14T05:41:45.353Z,954.3992
2023-05-14T05:42:46.613Z,954.3947
2023-05-14T05:43:48.190Z,954.3631
2023-05-14T05:44:49.591Z,954.3239
2023-05-14T05:45:51.002Z,954.3408
2023-05-14T05:46:52.386Z,954.3416
2023-05-14T05:47:53.874Z,954.3561
2023-05-14T05:48:55.130Z,954.3692
2023-05-14T05:49:56.612Z,954.3646
2023-05-14T05:50:57.986Z,954.3646
2023-05-14T05:51:59.459Z,954.3515
2023-05-14T05:53:00.934Z,954.3508
2023-05-14T05:54:02.470Z,954.3654
2023-05-14T05:55:03.781Z,954.3638
2023-05-14T05:56:05.123Z,954.3677
2023-05-14T05:57:06.578Z,954.3730
2023-05-14T05:58:08.030Z,954.3785
2023-05-14T05:59:09.468Z,954.3808
2023-05-14T06:00:10.869Z,954.3777
2023-05-14T06:01:12.255Z,954.3815
2023-05-14T06:02:13.773Z,954.3892
2023-05-14T06:03:15.163Z,954.4069
2023-05-14T06:04:16.609Z,954.4208
2023-05-14T06:05:18.007Z,954.4308
2023-05-14T06:06:19.535Z,954.4485
2023-05-14T06:07:20.794Z,954.4769
2023-05-14T06:08:22.273Z,954.4923
2023-05-14T06:09:23.664Z,954.5100
2023-05-14T06:10:25.374Z,954.5408
2023-05-14T06:11:26.497Z,954.5685
2023-05-14T06:12:27.953Z,954.5754
2023-05-14T06:13:29.350Z,954.5508
2023-05-14T06:14:30.829Z,954.5346
2023-05-14T06:15:32.165Z,954.5423
2023-05-14T06:16:33.697Z,954.5623
2023-05-14T06:17:35.063Z,954.5715
2023-05-14T06:18:36.582Z,954.5662
2023-05-14T06:19:37.969Z,954.5523
2023-05-14T06:20:39.389Z,954.5316
2023-05-14T06:21:40.680Z,954.5131
2023-05-14T06:22:42.122Z,954.5262
2023-05-14T06:23:43.625Z,954.5215
2023-05-14T06:24:45.017Z,954.5277
2023-05-14T06:25:46.570Z,954.5354
2023-05-14T06:26:47.849Z,954.5562
2023-05-14T06:27:49.258Z,954.5746
2023-05-14T06:28:50.624Z,954.5908
2023-05-14T06:29:52.069Z,954.5746
2023-05-14T06:30:53.514Z,954.5246
2023-05-14T06:31:54.999Z,954.4846
2023-05-14T06:32:56.335Z,954.5023
2023-05-14T06:33:57.645Z,954.5054
2023-05-14T06:34:59.183Z,954.5139
2023-05-14T06:36:00.570Z,954.4923
2023-05-14T06:37:01.973Z,954.4438
2023-05-14T06:38:03.372Z,954.3969
2023-05-14T06:39:04.805Z,954.4054
2023-05-14T06:40:06.269Z,954.4346
2023-05-14T06:41:07.670Z,954.4677
2023-05-14T06:42:09.027Z,954.4669
2023-05-14T06:43:10.585Z,954.4492
2023-05-14T06:44:11.917Z,954.4131
2023-05-14T06:45:13.398Z,954.4130
2023-05-14T06:46:14.760Z,954.4408
2023-05-14T06:47:16.213Z,954.4792
2023-05-14T06:48:17.549Z,954.4992
2023-05-14T06:49:19.024Z,954.4846
2023-05-14T06:50:20.518Z,954.4715
2023-05-14T06:51:21.924Z,954.4800
2023-05-14T06:52:23.353Z,954.5131
2023-05-14T06:53:24.797Z,954.5461
2023-05-14T06:54:26.191Z,954.5500
2023-05-14T06:55:27.602Z,954.5192
2023-05-14T06:56:28.947Z,954.5185
2023-05-14T06:57:30.505Z,954.5131
2023-05-14T06:58:31.769Z,954.5431
2023-05-14T06:59:33.245Z,954.5654
2023-05-14T07:00:34.710Z,954.5323
2023-05-14T07:01:36.234Z,954.5254
2023-05-14T07:02:37.401Z,954.4985
2023-05-14T07:03:39.017Z,954.5223
2023-05-14T07:04:40.392Z,954.5346
2023-05-14T07:05:41.842Z,954.4923
2023-05-14T07:06:43.187Z,954.4746
2023-05-14T07:07:44.629Z,954.4523
2023-05-14T07:08:46.030Z,954.4738
2023-05-14T07:09:47.464Z,954.4877
2023-05-14T07:10:48.929Z,954.4585
2023-05-14T07:11:50.329Z,954.4492
2023-05-14T07:12:51.725Z,954.4523
2023-05-14T07:13:53.244Z,954.4785
2023-05-14T07:14:54.551Z,954.4838
2023-05-14T07:15:56.089Z,954.4646
2023-05-14T07:16:57.523Z,954.4116
2023-05-14T07:17:58.907Z,954.3877
2023-05-14T07:19:00.331Z,954.3815
2023-05-14T07:20:01.833Z,954.3839
2023-05-14T07:21:03.168Z,954.3854
2023-05-14T07:22:04.492Z,954.3531
2023-05-14T07:23:05.902Z,954.3677
2023-05-14T07:24:07.444Z,954.3785
2023-05-14T07:25:08.782Z,954.3846
2023-05-14T07:26:10.287Z,954.3669
2023-05-14T07:27:11.770Z,954.3123
2023-05-14T07:28:13.126Z,954.3092
2023-05-14T07:29:14.406Z,954.3130
2023-05-14T07:30:16.077Z,954.3223
2023-05-14T07:31:17.360Z,954.3408
2023-05-14T07:32:18.781Z,954.3154
2023-05-14T07:33:20.210Z,954.3008
2023-05-14T07:34:21.585Z,954.2554
2023-05-14T07:35:23.022Z,954.2554
2023-05-14T07:36:24.496Z,954.2731
2023-05-14T07:37:25.941Z,954.2977
2023-05-14T07:38:27.350Z,954.3162
2023-05-14T07:39:28.765Z,954.3347
2023-05-14T07:40:30.140Z,954.2985
2023-05-14T07:41:31.661Z,954.2646
2023-05-14T07:42:36.588Z,954.2492
2023-05-14T07:43:34.390Z,954.2554
2023-05-14T07:44:35.834Z,954.2784
2023-05-14T07:45:37.288Z,954.2961
2023-05-14T07:46:38.694Z,954.3038
2023-05-14T07:47:40.152Z,954.3208
2023-05-14T07:48:41.528Z,954.2800
2023-05-14T07:49:42.919Z,954.2354
2023-05-14T07:50:44.358Z,954.2215
2023-05-14T07:51:45.836Z,954.2392
2023-05-14T07:52:47.231Z,954.2685
2023-05-14T07:53:48.624Z,954.2892
2023-05-14T07:54:50.757Z,954.2915
2023-05-14T07:55:51.436Z,954.2938
2023-05-14T07:56:52.889Z,954.2839
2023-05-14T07:57:54.356Z,954.2338
2023-05-14T07:58:55.693Z,954.2269
2023-05-14T07:59:57.073Z,954.2430
2023-05-14T08:00:58.555Z,954.2784
2023-05-14T08:02:00.067Z,954.3000
2023-05-14T08:03:01.459Z,954.2977
2023-05-14T08:04:02.927Z,954.3154
2023-05-14T08:05:04.257Z,954.3000
2023-05-14T08:06:05.728Z,954.2523
2023-05-14T08:07:07.122Z,954.2323
2023-05-14T08:08:08.571Z,954.2423
2023-05-14T08:09:09.894Z,954.2692
2023-05-14T08:10:11.352Z,954.2846
2023-05-14T08:11:12.753Z,954.2992
2023-05-14T08:12:14.222Z,954.3138
2023-05-14T08:13:15.652Z,954.2816
2023-05-14T08:14:16.952Z,954.2369
2023-05-14T08:15:18.434Z,954.2092
2023-05-14T08:16:19.949Z,954.2100
2023-05-14T08:17:21.348Z,954.2385
2023-05-14T08:18:22.765Z,954.2446
2023-05-14T08:19:24.168Z,954.2430
2023-05-14T08:20:25.886Z,954.2492
2023-05-14T08:21:26.969Z,954.2077
2023-05-14T08:22:28.427Z,954.1584
2023-05-14T08:23:29.885Z,954.1561
2023-05-14T08:24:31.328Z,954.1561
2023-05-14T08:25:32.713Z,954.1669
2023-05-14T08:26:34.216Z,954.1631
2023-05-14T08:27:35.597Z,954.1477
2023-05-14T08:28:37.079Z,954.1431
2023-05-14T08:29:38.454Z,954.1169
2023-05-14T08:30:39.806Z,954.1000
2023-05-14T08:31:41.304Z,954.1177
2023-05-14T08:32:42.733Z,954.1362
2023-05-14T08:33:44.173Z,954.1600
2023-05-14T08:34:45.623Z,954.1554
2023-05-14T08:35:46.961Z,954.1454
2023-05-14T08:36:48.401Z,954.1331
2023-05-14T08:37:49.819Z,954.0847
2023-05-14T08:38:51.253Z,954.0969
2023-05-14T08:39:52.680Z,954.1230
2023-05-14T08:40:54.116Z,954.1408
2023-05-14T08:41:55.462Z,954.1646
2023-05-14T08:42:56.960Z,954.1616
2023-05-14T08:43:58.381Z,954.1415
2023-05-14T08:44:59.755Z,954.0984
2023-05-14T08:46:01.217Z,954.0731
2023-05-14T08:47:02.647Z,954.0900
2023-05-14T08:48:04.091Z,954.0939
2023-05-14T08:49:05.593Z,954.0969
2023-05-14T08:50:06.864Z,954.1254
2023-05-14T08:51:08.250Z,954.1146
2023-05-14T08:52:09.640Z,954.0785
2023-05-14T08:53:11.109Z,954.0461
2023-05-14T08:54:12.481Z,954.0400
2023-05-14T08:55:14.051Z,954.0493
2023-05-14T08:56:15.336Z,954.0739
2023-05-14T08:57:16.799Z,954.0854
2023-05-14T08:58:18.136Z,954.0692
2023-05-14T08:59:19.713Z,954.0438
2023-05-14T09:00:21.164Z,954.0069
2023-05-14T09:01:22.582Z,953.9992
2023-05-14T09:02:23.937Z,954.0239
2023-05-14T09:03:25.432Z,954.0369
2023-05-14T09:04:26.818Z,954.0323
2023-05-14T09:05:28.253Z,954.0323
2023-05-14T09:06:29.688Z,954.0139
2023-05-14T09:07:31.024Z,953.9738
2023-05-14T09:08:32.397Z,953.9438
2023-05-14T09:09:33.922Z,953.9592
2023-05-14T09:10:35.344Z,953.9830
2023-05-14T09:11:36.692Z,953.9946
2023-05-14T09:12:38.176Z,953.9985
2023-05-14T09:13:39.574Z,953.9885
2023-05-14T09:14:41.004Z,953.9738
2023-05-14T09:15:42.360Z,953.9377
2023-05-14T09:16:43.886Z,953.9354
2023-05-14T09:17:45.320Z,953.9508
2023-05-14T09:18:46.810Z,953.9554
2023-05-14T09:19:48.205Z,953.9777
2023-05-14T09:20:49.497Z,953.9623
2023-05-14T09:21:50.932Z,953.9492
2023-05-14T09:22:52.364Z,953.9200
2023-05-14T09:23:53.796Z,953.8762
2023-05-14T09:24:55.256Z,953.8915
2023-05-14T09:25:56.748Z,953.9084
2023-05-14T09:26:58.042Z,953.9308
2023-05-14T09:27:59.482Z,953.9615
2023-05-14T09:29:00.764Z,953.9792
2023-05-14T09:30:02.413Z,953.9830
2023-05-14T09:31:03.869Z,953.9669
2023-05-14T09:32:05.353Z,953.9346
2023-05-14T09:33:06.591Z,953.9562
2023-05-14T09:34:08.038Z,953.9823
2023-05-14T09:35:09.520Z,953.9985
2023-05-14T09:36:11.038Z,954.0223
2023-05-14T09:37:12.401Z,954.0408
2023-05-14T09:38:13.869Z,954.0446
2023-05-14T09:39:15.272Z,954.0031
2023-05-14T09:40:16.832Z,953.9385
2023-05-14T09:41:18.108Z,953.9115
2023-05-14T09:42:19.530Z,953.9300
2023-05-14T09:43:20.978Z,953.9492
2023-05-14T09:44:22.374Z,953.9631
2023-05-14T09:45:23.813Z,953.9661
2023-05-14T09:46:25.294Z,953.9600
2023-05-14T09:47:26.706Z,953.9462
2023-05-14T09:48:28.143Z,953.9131
2023-05-14T09:49:29.492Z,953.8600
2023-05-14T09:50:30.976Z,953.8523
2023-05-14T09:51:32.399Z,953.8638
2023-05-14T09:52:33.832Z,953.8630
2023-05-14T09:53:35.287Z,953.8815
2023-05-14T09:54:36.613Z,953.8669
2023-05-14T09:55:38.106Z,953.8654
2023-05-14T09:56:39.627Z,953.8269
2023-05-14T09:57:40.987Z,953.8038
2023-05-14T09:58:42.265Z,953.8092
2023-05-14T09:59:43.837Z,953.8223
2023-05-14T10:00:45.239Z,953.8354
2023-05-14T10:01:46.707Z,953.8307
2023-05-14T10:02:48.144Z,953.8308
2023-05-14T10:03:49.644Z,953.8246
2023-05-14T10:04:50.963Z,953.7646
2023-05-14T10:05:52.462Z,953.7238
2023-05-14T10:06:53.837Z,953.7377
2023-05-14T10:07:55.333Z,953.7615
2023-05-14T10:08:56.613Z,953.7562
2023-05-14T10:09:59.590Z,953.7554
2023-05-14T10:10:59.529Z,953.7585
2023-05-14T10:12:00.965Z,953.7246
2023-05-14T10:13:02.479Z,953.6631
2023-05-14T10:14:03.780Z,953.6815
2023-05-14T10:15:05.158Z,953.6970
2023-05-14T10:16:06.661Z,953.7031
2023-05-14T10:17:08.436Z,953.7146
2023-05-14T10:18:09.710Z,953.7123
2023-05-14T10:19:10.931Z,953.6823
2023-05-14T10:20:12.426Z,953.6339
2023-05-14T10:21:13.767Z,953.6315
2023-05-14T10:22:15.197Z,953.6315
2023-05-14T10:23:16.626Z,953.6508
2023-05-14T10:24:18.116Z,953.6777
2023-05-14T10:25:19.447Z,953.6900
2023-05-14T10:26:23.087Z,953.7015
2023-05-14T10:27:22.380Z,953.6238
2023-05-14T10:28:23.784Z,953.6008
2023-05-14T10:29:25.246Z,953.6177
2023-05-14T10:30:26.889Z,953.6539
2023-05-14T10:31:28.107Z,953.6392
2023-05-14T10:32:29.622Z,953.6230
2023-05-14T10:33:30.921Z,953.5877
2023-05-14T10:34:32.382Z,953.5562
2023-05-14T10:35:33.603Z,953.5731
2023-05-14T10:36:35.190Z,953.5908
2023-05-14T10:37:36.630Z,953.5961
2023-05-14T10:38:38.067Z,953.6000
2023-05-14T10:39:39.505Z,953.5846
2023-05-14T10:40:40.864Z,953.5431
2023-05-14T10:41:42.288Z,953.5300
2023-05-14T10:42:43.734Z,953.5654
2023-05-14T10:43:45.167Z,953.5869
2023-05-14T10:44:46.611Z,953.6069
2023-05-14T10:45:47.949Z,953.6023
2023-05-14T10:46:49.467Z,953.5692
2023-05-14T10:47:51.045Z,953.5254
2023-05-14T10:48:52.337Z,953.5461
2023-05-14T10:49:53.700Z,953.5815
2023-05-14T10:50:55.209Z,953.5777
2023-05-14T10:51:56.527Z,953.5823
2023-05-14T10:52:57.941Z,953.5630
2023-05-14T10:53:59.371Z,953.5139
2023-05-14T10:55:03.189Z,953.4962
2023-05-14T10:56:02.250Z,953.5239
2023-05-14T10:57:03.531Z,953.5416
2023-05-14T10:58:05.211Z,953.5600
2023-05-14T10:59:06.663Z,953.5554
2023-05-14T11:00:08.664Z,953.5185
2023-05-14T11:01:09.343Z,953.4761
2023-05-14T11:02:10.868Z,953.4692
2023-05-14T11:03:12.417Z,953.4792
2023-05-14T11:04:13.795Z,953.4708
2023-05-14T11:05:15.069Z,953.4631
2023-05-14T11:06:16.541Z,953.4638
2023-05-14T11:07:17.934Z,953.4054
2023-05-14T11:08:19.358Z,953.3831
2023-05-14T11:09:20.812Z,953.4193
2023-05-14T11:10:22.510Z,953.4515
2023-05-14T11:11:23.615Z,953.4808
2023-05-14T11:12:25.010Z,953.4792
2023-05-14T11:13:26.291Z,953.4362
2023-05-14T11:14:27.887Z,953.3931
2023-05-14T11:15:29.342Z,953.4000
2023-05-14T11:16:30.691Z,953.4108
2023-05-14T11:17:32.202Z,953.4077
2023-05-14T11:18:33.643Z,953.4246
2023-05-14T11:19:35.015Z,953.4192
2023-05-14T11:20:36.362Z,953.3777
2023-05-14T11:21:37.879Z,953.3831
2023-05-14T11:22:39.186Z,953.3969
2023-05-14T11:23:40.723Z,953.3892
2023-05-14T11:24:42.286Z,953.3892
2023-05-14T11:25:43.602Z,953.3977
2023-05-14T11:26:44.930Z,953.3892
2023-05-14T11:27:46.354Z,953.3239
2023-05-14T11:28:47.776Z,953.2969
2023-05-14T11:29:49.210Z,953.3115
2023-05-14T11:30:50.676Z,953.3239
2023-05-14T11:31:52.164Z,953.3331
2023-05-14T11:32:53.399Z,953.3146
2023-05-14T11:33:54.927Z,953.2800
2023-05-14T11:34:56.343Z,953.2315
2023-05-14T11:35:57.798Z,953.2230
2023-05-14T11:36:59.297Z,953.2400
2023-05-14T11:38:00.654Z,953.2508
2023-05-14T11:39:01.992Z,953.2392
2023-05-14T11:40:03.503Z,953.2277
2023-05-14T11:41:04.831Z,953.2169
2023-05-14T11:42:06.290Z,953.2246
2023-05-14T11:43:07.677Z,953.2415
2023-05-14T11:44:09.269Z,953.2570
2023-05-14T11:45:10.636Z,953.2585
2023-05-14T11:46:12.036Z,953.2223
2023-05-14T11:47:13.357Z,953.1870
2023-05-14T11:48:14.852Z,953.1892
2023-05-14T11:49:16.184Z,953.2008
2023-05-14T11:50:17.652Z,953.2092
2023-05-14T11:51:19.183Z,953.2069
2023-05-14T11:52:20.542Z,953.2261
2023-05-14T11:53:22.093Z,953.1761
2023-05-14T11:54:23.308Z,953.1431
2023-05-14T11:55:24.771Z,953.1584
2023-05-14T11:56:26.301Z,953.1408
2023-05-14T11:57:27.664Z,953.1447
2023-05-14T11:58:29.068Z,953.1539
2023-05-14T11:59:30.434Z,953.1185
2023-05-14T12:00:31.882Z,953.0900
2023-05-14T12:01:33.338Z,953.0785